createdAt,value
2017-09-28T02:24:17.145Z,95944.00
2017-09-28T02:26:45.242Z,95949.09
2017-09-28T02:29:12.652Z,95945.13
2017-09-28T02:31:40.923Z,95938.91
2017-09-28T02:34:08.204Z,95943.75
2017-09-28T02:36:35.443Z,95944.09
2017-09-28T02:39:02.803Z,95939.91
2017-09-28T04:34:59.772Z,95985.66
2017-09-28T04:37:27.019Z,95984.56
2017-09-28T04:39:54.357Z,95987.78
2017-09-28T04:42:21.653Z,95992.36
2017-09-28T04:44:49.012Z,95993.33
2017-09-28T05:28:39.316Z,95990.63
2017-09-28T05:33:48.193Z,95986.81
2017-09-28T05:36:15.549Z,95985.63
2017-09-28T05:39:03.759Z,95991.11
2017-09-28T05:49:41.059Z,96001.24
2017-09-28T05:52:08.469Z,95999.95
2017-09-28T07:17:46.694Z,96059.84
2017-09-28T07:20:14.887Z,96056.27
2017-09-28T07:22:42.436Z,96052.28
2017-09-28T07:25:10.199Z,96051.48
2017-09-28T07:32:49.348Z,96054.78
2017-09-28T07:35:17.432Z,96057.69
2017-09-28T07:45:45.754Z,96054.78
2017-09-28T07:48:17.875Z,96052.19
2017-09-28T08:12:32.612Z,96059.80
2017-09-28T09:06:15.184Z,96060.48
2017-09-28T09:16:43.613Z,96060.06
2017-09-28T09:32:02.598Z,96058.74
2017-09-28T09:44:46.990Z,96071.33
2017-09-28T09:47:15.620Z,96073.55
2017-09-28T10:00:05.893Z,96070.58
2017-09-28T10:07:52.704Z,96073.50
2017-09-28T10:10:20.265Z,96077.27
2017-09-28T10:12:47.870Z,96074.68
2017-09-28T10:15:18.580Z,96073.93
2017-09-28T10:17:47.617Z,96068.23
2017-09-28T10:20:15.418Z,96071.86
2017-09-28T10:22:46.042Z,96059.59
2017-09-28T10:25:13.643Z,96058.67
2017-09-28T10:30:14.016Z,96057.08
2017-09-28T10:32:42.212Z,96050.77
2017-09-28T10:35:09.923Z,96042.89
2017-09-28T10:37:37.539Z,96049.14
2017-09-28T10:40:04.831Z,96046.27
2017-09-28T10:42:34.993Z,96047.16
2017-09-28T10:45:03.894Z,96038.97
2017-09-28T10:47:31.340Z,96034.77
2017-09-28T10:49:58.736Z,96031.98
2017-09-28T10:52:26.453Z,96029.12
2017-09-28T10:57:34.959Z,96037.42
2017-09-28T11:00:04.094Z,96029.27
2017-09-28T11:02:31.385Z,96024.48
2017-09-28T11:04:58.843Z,96025.67
2017-09-28T11:07:27.487Z,96024.00
2017-09-28T11:09:54.748Z,96026.40
2017-09-28T11:14:53.183Z,96027.75
2017-09-28T11:17:21.135Z,96021.52
2017-09-28T11:19:50.127Z,96027.26
2017-09-28T11:22:22.772Z,96035.63
2017-09-28T11:24:50.007Z,96032.92
2017-09-28T11:27:17.591Z,96029.12
2017-09-28T11:29:45.405Z,96027.59
2017-09-28T11:32:13.345Z,96023.66
2017-09-28T11:34:40.832Z,96026.32
2017-09-28T11:42:24.094Z,96030.41
2017-09-28T11:47:31.669Z,96033.62
2017-09-28T11:50:00.301Z,96029.32
2017-09-28T11:55:00.593Z,96038.64
2017-09-28T11:57:28.073Z,96037.56
2017-09-28T12:02:28.681Z,96037.25
2017-09-28T12:04:57.511Z,96038.91
2017-09-28T12:07:24.899Z,96036.47
2017-09-28T12:12:29.308Z,96036.26
2017-09-28T12:14:58.940Z,96037.41
2017-09-28T12:17:30.388Z,96036.66
2017-09-28T12:19:58.712Z,96034.80
2017-09-28T12:22:26.038Z,96036.89
2017-09-28T12:24:53.354Z,96038.61
2017-09-28T12:27:20.725Z,96038.05
2017-09-28T12:29:48.428Z,96034.29
2017-09-28T12:32:17.954Z,96033.92
2017-09-28T12:34:48.097Z,96033.34
2017-09-28T12:37:15.654Z,96034.29
2017-09-28T12:39:43.507Z,96031.47
2017-09-28T12:42:11.100Z,96031.25
2017-09-28T12:44:38.747Z,96033.73
2017-09-28T12:47:06.314Z,96027.10
2017-09-28T12:49:36.989Z,96028.59
2017-09-28T12:52:04.594Z,96026.34
2017-09-28T12:54:38.401Z,96024.06
2017-09-28T12:59:43.975Z,96039.38
2017-09-28T13:04:55.051Z,96035.03
2017-09-28T13:09:57.655Z,96034.51
2017-09-28T13:20:06.337Z,96029.91
2017-09-28T13:22:37.330Z,96031.23
2017-09-28T13:59:29.266Z,96043.56
2017-09-28T14:04:30.671Z,96037.05
2017-09-28T14:17:09.427Z,96043.28
2017-09-28T14:19:38.745Z,96034.30
2017-09-28T14:32:19.555Z,96032.69
2017-09-28T14:34:46.847Z,96034.79
2017-09-28T14:45:00.334Z,96032.34
2017-09-28T14:47:28.595Z,96030.80
2017-09-28T15:02:48.464Z,96042.48
2017-09-28T15:05:15.936Z,96042.80
2017-09-28T15:07:43.525Z,96042.29
2017-09-28T15:10:11.770Z,96038.16
2017-09-28T15:12:39.061Z,96036.58
2017-09-28T15:15:07.273Z,96035.22
2017-09-28T15:17:34.643Z,96036.92
2017-09-28T15:20:01.987Z,96032.22
2017-09-28T15:22:29.855Z,96034.64
2017-09-28T15:24:57.196Z,96033.84
2017-09-28T15:27:24.805Z,96037.44
2017-09-28T15:29:52.086Z,96036.19
2017-09-28T15:32:19.384Z,96044.91
2017-09-28T15:34:46.739Z,96041.57
2017-09-28T15:37:14.056Z,96034.20
2017-09-28T15:39:41.325Z,96034.41
2017-09-28T15:42:08.647Z,96030.59
2017-09-28T15:44:36.546Z,96033.97
2017-09-28T15:54:42.121Z,96030.33
2017-09-28T15:57:11.366Z,96034.14
2017-09-28T15:59:38.702Z,96032.22
2017-09-28T16:02:06.036Z,96031.00
2017-09-28T16:04:33.331Z,96033.63
2017-09-28T16:07:00.614Z,96034.46
2017-09-28T16:09:33.391Z,96031.59
2017-09-28T16:12:03.855Z,96036.69
2017-09-28T16:14:31.096Z,96030.23
2017-09-28T16:16:58.331Z,96036.20
2017-09-28T16:19:25.583Z,96032.04
2017-09-28T16:21:52.816Z,96035.28
2017-09-28T16:24:20.087Z,96033.38
2017-09-28T16:26:47.663Z,96031.86
2017-09-28T16:29:14.902Z,96029.41
2017-09-28T16:31:42.169Z,96034.14
2017-09-28T16:34:09.422Z,96035.06
2017-09-28T16:36:36.668Z,96036.77
2017-09-28T16:39:03.947Z,96029.95
2017-09-28T16:41:31.261Z,96034.31
2017-09-28T16:43:59.182Z,96033.38
2017-09-28T16:46:26.535Z,96032.22
2017-09-28T16:48:53.776Z,96030.89
2017-09-28T16:51:21.077Z,96028.59
2017-09-28T16:53:48.388Z,96031.98
2017-09-28T16:56:15.538Z,96030.64
2017-09-28T16:58:42.873Z,96031.75
2017-09-28T17:01:10.129Z,96036.67
2017-09-28T17:03:37.383Z,96037.62
2017-09-28T17:06:04.667Z,96038.00
2017-09-28T17:08:31.988Z,96033.66
2017-09-28T17:10:59.268Z,96039.34
2017-09-28T17:13:26.483Z,96044.10
2017-09-28T17:15:53.709Z,96047.34
2017-09-28T17:18:20.907Z,96042.25
2017-09-28T17:20:48.182Z,96039.79
2017-09-28T17:23:15.434Z,96040.19
2017-09-28T17:25:42.715Z,96046.84
2017-09-28T17:28:09.938Z,96049.12
2017-09-28T17:30:37.230Z,96045.17
2017-09-28T17:33:05.685Z,96052.55
2017-09-28T17:35:32.931Z,96055.59
2017-09-28T17:38:00.177Z,96057.88
2017-09-28T17:40:32.420Z,96055.61
2017-09-28T17:43:00.526Z,96058.65
2017-09-28T17:45:27.830Z,96056.35
2017-09-28T17:47:55.048Z,96054.86
2017-09-28T17:50:22.304Z,96056.38
2017-09-28T18:05:33.201Z,96078.16
2017-09-28T18:08:00.442Z,96074.77
2017-09-28T18:10:27.646Z,96077.61
2017-09-28T18:14:46.205Z,96080.81
2017-09-28T18:17:14.433Z,96076.83
2017-09-28T18:19:42.558Z,96080.26
2017-09-28T18:22:09.880Z,96089.54
2017-09-28T18:24:37.190Z,96081.01
2017-09-28T18:27:04.378Z,96091.03
2017-09-28T18:29:31.769Z,96084.05
2017-09-28T18:31:58.989Z,96082.72
2017-09-28T18:34:26.305Z,96087.64
2017-09-28T18:36:53.505Z,96085.73
2017-09-28T18:39:20.916Z,96095.77
2017-09-28T18:41:48.115Z,96096.60
2017-09-28T18:44:15.339Z,96100.53
2017-09-28T18:46:42.610Z,96097.47
2017-09-28T18:49:09.796Z,96096.69
2017-09-28T18:51:37.084Z,96100.06
2017-09-28T18:54:04.409Z,96094.34
2017-09-28T18:56:31.781Z,96095.24
2017-09-28T18:58:59.011Z,96094.62
2017-09-28T19:04:00.403Z,96101.52
2017-09-28T19:06:29.598Z,96098.25
2017-09-28T19:08:57.326Z,96105.02
2017-09-28T19:11:24.773Z,96104.40
2017-09-28T19:13:52.057Z,96096.41
2017-09-28T19:16:19.330Z,96101.28
2017-09-28T19:18:46.607Z,96103.14
2017-09-28T19:21:13.945Z,96096.85
2017-09-28T19:23:41.188Z,96098.33
2017-09-28T19:26:08.422Z,96098.11
2017-09-28T19:28:35.816Z,96092.95
2017-09-28T19:31:02.995Z,96094.80
2017-09-28T19:33:30.200Z,96098.17
2017-09-28T19:35:57.458Z,96100.24
2017-09-28T19:38:24.695Z,96096.99
2017-09-28T19:40:51.935Z,96101.13
2017-09-28T19:43:19.172Z,96099.40
2017-09-28T19:45:46.458Z,96096.75
2017-09-28T19:48:21.592Z,96099.55
2017-09-28T19:50:49.219Z,96101.20
2017-09-28T19:53:17.104Z,96099.30
2017-09-28T19:55:44.319Z,96101.92
2017-09-28T19:58:11.579Z,96104.73
2017-09-28T20:00:38.796Z,96100.38
2017-09-28T20:03:06.160Z,96089.19
2017-09-28T20:05:33.450Z,96086.31
2017-09-28T20:08:00.701Z,96087.81
2017-09-28T20:10:27.930Z,96092.69
2017-09-28T20:12:55.824Z,96088.14
2017-09-28T20:15:23.023Z,96090.95
2017-09-28T20:17:50.258Z,96091.70
2017-09-28T20:20:17.420Z,96093.77
2017-09-28T20:22:44.596Z,96093.94
2017-09-28T20:25:11.890Z,96087.88
2017-09-28T20:27:39.877Z,96084.26
2017-09-28T20:30:07.195Z,96081.97
2017-09-28T20:32:34.462Z,96084.37
2017-09-28T20:35:01.638Z,96080.20
2017-09-28T20:37:28.870Z,96080.95
2017-09-28T20:39:56.090Z,96076.95
2017-09-28T20:42:23.383Z,96073.34
2017-09-28T20:44:50.740Z,96062.73
2017-09-28T20:47:17.958Z,96065.56
2017-09-28T20:49:45.181Z,96066.89
2017-09-28T20:52:12.395Z,96065.54
2017-09-28T20:54:39.623Z,96060.61
2017-09-28T20:57:06.873Z,96063.45
2017-09-28T20:59:34.066Z,96056.61
2017-09-28T21:02:01.335Z,96060.94
2017-09-28T21:04:28.571Z,96064.91
2017-09-28T21:06:55.809Z,96057.71
2017-09-28T21:09:23.217Z,96057.52
2017-09-28T21:11:50.419Z,96049.94
2017-09-28T21:14:17.667Z,96042.36
2017-09-28T21:16:44.880Z,96043.30
2017-09-28T21:19:12.171Z,96044.59
2017-09-28T21:21:39.359Z,96044.20
2017-09-28T21:54:50.176Z,96046.48
2017-09-28T21:57:19.187Z,96047.06
2017-09-28T21:59:51.133Z,96042.13
2017-09-28T22:02:19.172Z,96041.17
2017-09-28T22:04:46.558Z,96041.72
2017-09-28T22:07:13.900Z,96039.23
2017-09-28T22:09:41.107Z,96038.66
2017-09-28T22:12:08.394Z,96031.47
2017-09-28T22:14:35.863Z,96034.11
2017-09-28T22:17:03.138Z,96039.59
2017-09-28T22:19:30.511Z,96032.17
2017-09-28T22:21:57.808Z,96030.28
2017-09-28T22:24:25.023Z,96031.22
2017-09-28T22:26:52.262Z,96032.15
2017-09-28T22:29:19.463Z,96027.98
2017-09-28T22:31:46.639Z,96022.70
2017-09-28T22:34:13.930Z,96027.22
2017-09-28T22:36:41.320Z,96025.16
2017-09-28T22:39:08.599Z,96027.96
2017-09-28T22:41:35.803Z,96020.77
2017-09-28T22:44:03.087Z,96020.00
2017-09-28T22:46:31.560Z,96008.84
2017-09-28T22:49:02.422Z,96016.20
2017-09-28T22:51:29.938Z,96003.55
2017-09-28T22:53:57.125Z,96008.63
2017-09-28T22:56:24.275Z,96003.52
2017-09-28T22:58:53.891Z,96012.94
2017-09-28T23:01:21.879Z,96019.16
2017-09-28T23:03:49.393Z,96019.36
2017-09-28T23:06:19.897Z,96021.81
2017-09-28T23:08:50.787Z,96013.49
2017-09-28T23:11:19.983Z,96017.63
2017-09-28T23:13:50.108Z,96012.69
2017-09-28T23:16:21.550Z,96011.95
2017-09-28T23:18:49.825Z,96011.17
2017-09-28T23:21:17.306Z,96010.59
2017-09-28T23:23:49.162Z,96004.73
2017-09-28T23:26:16.454Z,95999.60
2017-09-28T23:28:43.670Z,96002.80
2017-09-28T23:31:10.851Z,96004.70
2017-09-28T23:33:38.069Z,96002.80
2017-09-28T23:36:05.338Z,95999.93
2017-09-28T23:38:32.562Z,95995.61
2017-09-28T23:41:02.213Z,95995.77
2017-09-28T23:43:29.423Z,95999.93
2017-09-28T23:45:56.618Z,95995.19
2017-09-28T23:48:23.808Z,95994.03
2017-09-28T23:50:51.062Z,95992.94
2017-09-28T23:53:18.384Z,95989.71
2017-09-28T23:55:45.589Z,95993.29
2017-09-28T23:58:12.827Z,95991.39
